Time;durP1;ratioP1;P1;durP2;ratioP2;P2;SDS_P1;SDS_P2;PMS_P1;PMS_P2;Temp;Humidity;BMP_temperature;BMP_pressure;BME280_temperature;BME280_humidity;BME280_pressure;Samples;Min_cycle;Max_cycle;Signal;HPM_P1;HPM_P2
2022/10/04 00:02:02;;;;;;;10.90;3.92;;;13.20;99.90;;;;;;5056941;28;20338;-77
2022/10/04 00:04:43;;;;;;;13.35;4.32;;;13.20;99.90;;;;;;5062188;28;20105;-77
2022/10/04 00:07:11;;;;;;;13.93;3.90;;;13.20;99.90;;;;;;5055456;28;20537;-77
2022/10/04 00:09:44;;;;;;;11.98;4.75;;;13.10;99.90;;;;;;5056101;28;20129;-77
2022/10/04 00:12:27;;;;;;;12.27;4.35;;;13.20;99.90;;;;;;5056140;28;20373;-77
2022/10/04 00:15:01;;;;;;;14.27;4.10;;;13.10;99.90;;;;;;5062537;28;20072;-77
2022/10/04 00:17:31;;;;;;;9.88;4.22;;;13.20;99.90;;;;;;5043596;28;20044;-78
2022/10/04 00:19:57;;;;;;;9.15;3.83;;;13.20;99.90;;;;;;5062639;28;20418;-77
2022/10/04 00:22:25;;;;;;;8.90;3.88;;;13.00;99.90;;;;;;5061856;28;20029;-77
2022/10/04 00:25:06;;;;;;;11.60;4.45;;;13.20;99.90;;;;;;5051017;28;20128;-77
2022/10/04 00:27:36;;;;;;;8.82;5.30;;;13.10;99.90;;;;;;5060771;28;20047;-78
2022/10/04 00:30:02;;;;;;;8.68;3.58;;;13.10;99.90;;;;;;5049584;28;20050;-77
2022/10/04 00:32:40;;;;;;;8.75;4.05;;;13.10;99.90;;;;;;5054267;28;20040;-77
2022/10/04 00:35:38;;;;;;;16.10;4.30;;;13.10;99.90;;;;;;5052541;28;20066;-77
2022/10/04 00:38:06;;;;;;;;;;;13.10;99.90;;;;;;5014484;28;20119;-77
2022/10/04 00:40:45;;;;;;;9.52;4.03;;;13.10;99.90;;;;;;5041564;28;19916;-77
2022/10/04 00:43:24;;;;;;;13.65;4.20;;;13.10;99.90;;;;;;5056793;28;20060;-77
2022/10/04 00:46:04;;;;;;;9.35;4.32;;;13.10;99.90;;;;;;5064881;28;20045;-77
2022/10/04 00:48:43;;;;;;;8.40;3.58;;;13.10;99.90;;;;;;5060845;28;20117;-77
2022/10/04 00:51:31;;;;;;;11.95;5.10;;;13.10;99.90;;;;;;5053858;28;20478;-77
2022/10/04 00:54:00;;;;;;;10.30;4.35;;;13.10;99.90;;;;;;5057859;28;20546;-77
2022/10/04 00:56:35;;;;;;;8.35;4.38;;;13.10;99.90;;;;;;5040671;28;20135;-77
2022/10/04 00:59:16;;;;;;;10.23;4.40;;;13.10;99.90;;;;;;5067938;28;20036;-78
2022/10/04 01:01:46;;;;;;;10.77;3.97;;;13.00;99.90;;;;;;5056992;28;20064;-77
2022/10/04 01:04:40;;;;;;;8.13;4.30;;;13.10;99.90;;;;;;5048439;28;20033;-77
2022/10/04 01:07:08;;;;;;;15.23;4.78;;;13.10;99.90;;;;;;5058813;28;20070;-77
2022/10/04 01:09:45;;;;;;;9.43;4.47;;;13.10;99.90;;;;;;5057440;28;20045;-77
2022/10/04 01:12:52;;;;;;;14.98;4.88;;;13.10;99.90;;;;;;5057191;28;20032;-77
2022/10/04 01:15:27;;;;;;;8.70;4.63;;;13.00;99.90;;;;;;5053694;28;20083;-77
2022/10/04 01:18:19;;;;;;;13.57;4.55;;;13.00;99.90;;;;;;5055015;28;20585;-77
2022/10/04 01:20:48;;;;;;;12.90;4.30;;;13.00;99.90;;;;;;5055340;28;20371;-77
2022/10/04 01:23:33;;;;;;;9.95;4.43;;;13.00;99.90;;;;;;5058655;28;20036;-77
2022/10/04 01:26:00;;;;;;;9.43;4.53;;;13.00;99.90;;;;;;5052078;28;20132;-77
2022/10/04 01:28:26;;;;;;;8.77;4.07;;;13.00;99.90;;;;;;5051470;28;20115;-77
2022/10/04 01:30:52;;;;;;;15.55;4.60;;;13.00;99.90;;;;;;5069463;28;20051;-77
2022/10/04 01:33:18;;;;;;;13.82;4.50;;;13.00;99.90;;;;;;5061283;28;20518;-76
2022/10/04 01:35:43;;;;;;;11.55;4.85;;;13.00;99.90;;;;;;5057356;28;20106;-77
2022/10/04 01:38:11;;;;;;;8.57;4.57;;;13.00;99.90;;;;;;5065754;28;20044;-77
2022/10/04 01:40:54;;;;;;;18.83;5.28;;;13.00;99.90;;;;;;5066377;28;20060;-77
2022/10/04 01:43:29;;;;;;;12.70;4.47;;;12.90;99.90;;;;;;5058523;28;20121;-77
2022/10/04 01:46:02;;;;;;;9.98;4.88;;;12.90;99.90;;;;;;5060990;28;20049;-77
2022/10/04 01:48:33;;;;;;;10.63;4.82;;;12.90;99.90;;;;;;5055269;28;20064;-77
2022/10/04 01:51:20;;;;;;;12.02;5.38;;;12.80;99.90;;;;;;5059340;28;20432;-77
2022/10/04 01:54:04;;;;;;;11.10;5.05;;;12.80;99.90;;;;;;5049084;28;20140;-77
2022/10/04 01:56:46;;;;;;;8.88;4.40;;;12.80;99.90;;;;;;5065839;28;20409;-77
2022/10/04 01:59:21;;;;;;;10.30;4.65;;;12.70;99.90;;;;;;5060912;28;20133;-77
2022/10/04 02:01:56;;;;;;;10.82;4.43;;;12.70;99.90;;;;;;5051836;28;20055;-78
2022/10/04 02:04:31;;;;;;;8.48;4.57;;;12.70;99.90;;;;;;5059183;28;20062;-77
2022/10/04 02:06:59;;;;;;;15.10;4.93;;;12.60;99.90;;;;;;5060230;28;20071;-78
2022/10/04 02:09:30;;;;;;;6.43;4.20;;;12.60;99.90;;;;;;5066988;28;20127;-77
2022/10/04 02:11:57;;;;;;;9.93;4.22;;;12.60;99.90;;;;;;5055800;28;20047;-77
2022/10/04 02:14:26;;;;;;;12.68;4.38;;;12.50;99.90;;;;;;5053566;28;20316;-77
2022/10/04 02:16:55;;;;;;;9.82;4.20;;;12.50;99.90;;;;;;5063367;28;20067;-77
2022/10/04 02:19:31;;;;;;;7.88;4.18;;;12.50;99.90;;;;;;5065349;22;20041;-73
2022/10/04 02:21:57;;;;;;;13.93;4.67;;;12.50;99.90;;;;;;5025125;28;20041;-72
2022/10/04 02:24:23;;;;;;;13.65;4.50;;;12.40;99.90;;;;;;5032466;28;20037;-72
2022/10/04 02:26:51;;;;;;;7.47;4.88;;;12.40;99.90;;;;;;5037685;28;20371;-73
2022/10/04 02:29:19;;;;;;;12.68;4.55;;;12.40;99.90;;;;;;5039839;28;20041;-73
2022/10/04 02:34:31;;;;;;;11.07;4.20;;;12.30;99.90;;;;;;5023453;28;20403;-74
2022/10/04 02:37:00;;;;;;;9.45;4.53;;;12.30;99.90;;;;;;5030729;28;20048;-74
2022/10/04 02:39:31;;;;;;;12.98;4.75;;;12.20;99.90;;;;;;5042564;28;20045;-73
2022/10/04 02:42:08;;;;;;;12.35;4.10;;;12.20;99.90;;;;;;5044701;28;20529;-74
2022/10/04 02:44:42;;;;;;;13.38;4.35;;;12.20;99.90;;;;;;5030079;28;20072;-74
2022/10/04 02:47:21;;;;;;;14.05;4.90;;;12.20;99.90;;;;;;5036290;28;20040;-73
2022/10/04 02:50:05;;;;;;;9.95;5.13;;;12.20;99.90;;;;;;5032172;28;20080;-73
2022/10/04 02:52:44;;;;;;;10.15;4.57;;;12.10;99.90;;;;;;5032587;28;20052;-74
2022/10/04 02:55:21;;;;;;;11.43;4.57;;;12.20;99.90;;;;;;5037849;28;20041;-73
2022/10/04 02:57:48;;;;;;;10.25;4.70;;;12.00;99.90;;;;;;5034716;28;20045;-73
2022/10/04 03:00:19;;;;;;;10.40;4.47;;;12.00;99.90;;;;;;5036563;28;20109;-73
2022/10/04 03:03:14;;;;;;;12.10;4.90;;;11.90;99.90;;;;;;5036553;28;20049;-73
2022/10/04 03:05:41;;;;;;;15.35;4.88;;;11.80;99.90;;;;;;5038952;28;20513;-72
2022/10/04 03:08:13;;;;;;;8.75;4.18;;;11.80;99.90;;;;;;5039866;28;20036;-73
2022/10/04 03:10:42;;;;;;;9.20;4.63;;;11.80;99.90;;;;;;5039667;28;20055;-73
2022/10/04 03:13:08;;;;;;;10.02;4.90;;;11.70;99.90;;;;;;5033364;28;20396;-73
2022/10/04 03:15:33;;;;;;;9.18;3.65;;;11.80;99.90;;;;;;5031687;28;20629;-73
2022/10/04 03:17:59;;;;;;;9.80;4.43;;;11.70;99.90;;;;;;5035761;28;20492;-73
2022/10/04 03:20:26;;;;;;;11.25;4.45;;;11.60;99.90;;;;;;5034757;28;20298;-73
2022/10/04 03:22:54;;;;;;;;;;;11.60;99.90;;;;;;5032812;28;20686;-73
2022/10/04 03:25:27;;;;;;;10.25;4.55;;;11.60;99.90;;;;;;5039701;28;19962;-73
2022/10/04 03:27:54;;;;;;;12.10;4.63;;;11.60;99.90;;;;;;5041541;28;20055;-73
2022/10/04 03:30:19;;;;;;;11.95;4.68;;;11.60;99.90;;;;;;5032941;28;20048;-72
2022/10/04 03:32:47;;;;;;;11.45;5.05;;;11.50;99.90;;;;;;5038593;28;20037;-73
2022/10/04 03:35:28;;;;;;;9.88;4.47;;;11.50;99.90;;;;;;5036981;28;20106;-72
2022/10/04 03:37:57;;;;;;;10.75;5.07;;;11.50;99.90;;;;;;5033253;28;20120;-73
2022/10/04 03:40:27;;;;;;;10.57;4.40;;;11.50;99.90;;;;;;5017491;28;20045;-73
2022/10/04 03:42:54;;;;;;;14.27;5.30;;;11.50;99.90;;;;;;5035200;28;20578;-73
2022/10/04 03:45:21;;;;;;;8.30;4.28;;;11.40;99.90;;;;;;5029726;28;20043;-72
2022/10/04 03:47:49;;;;;;;13.73;5.32;;;11.40;99.90;;;;;;5033849;28;20304;-73
2022/10/04 03:50:23;;;;;;;11.38;6.10;;;11.40;99.90;;;;;;5037274;28;20040;-73
2022/10/04 03:53:04;;;;;;;11.77;5.70;;;11.40;99.90;;;;;;5035910;28;20081;-73
2022/10/04 03:55:33;;;;;;;11.27;5.57;;;11.30;99.90;;;;;;5039027;28;20041;-72
2022/10/04 03:58:00;;;;;;;12.35;5.35;;;11.30;99.90;;;;;;5023085;28;20037;-73
2022/10/04 04:00:27;;;;;;;12.60;5.38;;;11.40;99.90;;;;;;5029771;28;20041;-73
2022/10/04 04:03:02;;;;;;;12.07;5.40;;;11.30;99.90;;;;;;5034899;28;20052;-73
2022/10/04 04:05:38;;;;;;;13.80;4.95;;;11.30;99.90;;;;;;5028720;28;20080;-73
2022/10/04 04:08:32;;;;;;;15.30;5.18;;;11.20;99.90;;;;;;5023464;28;20113;-73
2022/10/04 04:11:01;;;;;;;11.05;5.05;;;11.30;99.90;;;;;;5031253;28;20120;-73
2022/10/04 04:14:10;;;;;;;8.55;4.85;;;11.30;99.90;;;;;;5031451;28;20045;-72
2022/10/04 04:16:36;;;;;;;13.32;5.10;;;11.30;99.90;;;;;;5037392;28;20452;-73
2022/10/04 04:19:10;;;;;;;12.10;5.47;;;11.30;99.90;;;;;;5023181;28;20052;-73
2022/10/04 04:21:36;;;;;;;11.68;5.18;;;11.30;99.90;;;;;;5037515;28;20048;-73
2022/10/04 04:24:10;;;;;;;9.70;5.50;;;11.20;99.90;;;;;;5036364;28;20044;-73
2022/10/04 04:26:49;;;;;;;10.07;4.65;;;11.20;99.90;;;;;;5038131;28;20545;-73
2022/10/04 04:29:29;;;;;;;10.07;4.60;;;11.20;99.90;;;;;;5037803;28;20125;-73
2022/10/04 04:32:00;;;;;;;8.75;4.78;;;11.20;99.90;;;;;;5030572;28;20045;-74
2022/10/04 04:34:29;;;;;;;7.97;4.63;;;11.20;99.90;;;;;;5038550;28;20052;-74
2022/10/04 04:36:59;;;;;;;9.68;5.57;;;11.20;99.90;;;;;;5042775;28;20033;-73
2022/10/04 04:39:43;;;;;;;10.20;5.97;;;11.20;99.90;;;;;;5036185;28;20097;-74
2022/10/04 04:42:13;;;;;;;10.43;5.45;;;11.20;99.90;;;;;;5037365;28;20037;-73
2022/10/04 04:44:47;;;;;;;9.63;4.82;;;11.20;99.90;;;;;;5032545;28;20049;-73
2022/10/04 04:47:27;;;;;;;7.90;4.75;;;11.10;99.90;;;;;;5031038;28;20116;-73
2022/10/04 04:49:56;;;;;;;8.77;5.20;;;11.10;99.90;;;;;;5038045;28;20394;-73
2022/10/04 04:52:26;;;;;;;7.53;4.68;;;11.20;99.90;;;;;;5038177;28;20052;-72
2022/10/04 04:54:53;;;;;;;11.05;5.30;;;11.10;99.90;;;;;;5035078;28;20426;-73
2022/10/04 04:57:19;;;;;;;11.50;5.88;;;11.10;99.90;;;;;;5031712;28;20057;-73
2022/10/04 04:59:51;;;;;;;11.63;5.00;;;11.10;99.90;;;;;;5033739;28;20045;-73
2022/10/04 05:02:33;;;;;;;9.27;4.97;;;11.10;99.90;;;;;;5037681;28;20123;-73
2022/10/04 05:05:20;;;;;;;14.55;5.13;;;11.10;99.90;;;;;;5042895;28;20459;-74
2022/10/04 05:07:47;;;;;;;12.32;5.57;;;11.10;99.90;;;;;;5030916;28;20589;-73
2022/10/04 05:10:20;;;;;;;;;;;11.20;99.90;;;;;;5042393;28;20044;-73
2022/10/04 05:12:46;;;;;;;8.25;4.78;;;11.10;99.90;;;;;;5055010;28;20349;-73
2022/10/04 05:15:12;;;;;;;11.57;5.90;;;11.10;99.90;;;;;;5038431;28;20047;-74
2022/10/04 05:17:38;;;;;;;7.97;5.10;;;11.10;99.90;;;;;;5033171;28;20080;-74
2022/10/04 05:20:04;;;;;;;10.25;5.40;;;11.10;99.90;;;;;;5036050;28;20073;-73
2022/10/04 05:22:31;;;;;;;12.88;5.45;;;11.10;99.90;;;;;;5040712;28;20048;-73
2022/10/04 05:25:01;;;;;;;10.15;5.53;;;11.00;99.90;;;;;;5036270;28;20052;-73
2022/10/04 05:27:45;;;;;;;9.43;5.82;;;11.10;99.90;;;;;;5038698;28;20041;-74
2022/10/04 05:30:42;;;;;;;11.60;5.72;;;11.10;99.90;;;;;;5026295;28;20099;-73
2022/10/04 05:33:17;;;;;;;8.93;5.13;;;11.10;99.90;;;;;;5037720;28;20059;-76
2022/10/04 05:35:55;;;;;;;11.70;5.60;;;11.10;99.90;;;;;;5037374;28;20072;-74
2022/10/04 05:38:50;;;;;;;11.50;5.80;;;11.10;99.90;;;;;;5042895;28;20036;-74
2022/10/04 05:41:30;;;;;;;15.88;6.45;;;11.10;99.90;;;;;;5004552;28;20144;-74
2022/10/04 05:43:56;;;;;;;12.18;5.93;;;11.10;99.90;;;;;;5039995;28;20194;-73
2022/10/04 05:46:30;;;;;;;11.80;6.03;;;11.10;99.90;;;;;;5017828;28;20123;-74
2022/10/04 05:49:09;;;;;;;13.70;6.30;;;11.10;99.90;;;;;;5040964;28;20175;-74
2022/10/04 05:51:49;;;;;;;11.45;5.65;;;11.10;99.90;;;;;;5037863;28;20041;-76
2022/10/04 05:54:22;;;;;;;11.70;6.00;;;11.10;99.90;;;;;;5042878;28;20735;-77
2022/10/04 05:57:09;;;;;;;10.45;6.10;;;11.10;99.90;;;;;;5045023;28;20064;-74
2022/10/04 05:59:58;;;;;;;11.50;5.88;;;11.10;99.90;;;;;;5035003;28;20505;-77
2022/10/04 06:02:54;;;;;;;9.23;5.72;;;11.10;99.90;;;;;;5035186;28;20037;-73
2022/10/04 06:05:35;;;;;;;15.63;6.05;;;11.10;99.90;;;;;;5054773;28;20550;-74
2022/10/04 06:08:24;;;;;;;13.80;5.75;;;11.10;99.90;;;;;;5031803;28;20090;-74
2022/10/04 06:11:18;;;;;;;10.38;5.82;;;11.10;99.90;;;;;;5039690;28;20045;-74
2022/10/04 06:14:03;;;;;;;13.15;6.00;;;11.10;99.90;;;;;;5037109;28;20054;-75
2022/10/04 06:16:58;;;;;;;13.70;6.88;;;11.10;99.90;;;;;;5037631;28;20393;-74
2022/10/04 06:19:34;;;;;;;15.32;5.85;;;11.10;99.90;;;;;;5038245;28;20060;-76
2022/10/04 06:22:11;;;;;;;9.82;5.68;;;11.10;99.90;;;;;;5037216;28;20044;-75
2022/10/04 06:24:41;;;;;;;13.00;6.18;;;11.10;99.90;;;;;;5032587;28;20422;-80
2022/10/04 06:27:22;;;;;;;14.10;7.15;;;11.10;99.90;;;;;;5037642;28;20041;-77
2022/10/04 06:30:04;;;;;;;12.13;6.53;;;11.10;99.90;;;;;;5039271;28;20402;-76
2022/10/04 06:33:12;;;;;;;16.55;6.75;;;11.20;99.90;;;;;;5031047;28;20049;-73
2022/10/04 06:36:12;;;;;;;13.00;6.60;;;11.20;99.90;;;;;;5040107;28;20430;-76
2022/10/04 06:39:02;;;;;;;12.98;6.63;;;11.20;99.90;;;;;;5054283;28;20071;-77
2022/10/04 06:41:53;;;;;;;14.55;7.13;;;11.30;99.90;;;;;;5037588;28;20493;-77
2022/10/04 06:44:40;;;;;;;11.70;6.40;;;11.20;99.90;;;;;;5054758;28;20045;-75
2022/10/04 06:47:24;;;;;;;16.13;6.75;;;11.30;99.90;;;;;;5042523;28;20041;-72
2022/10/04 06:50:05;;;;;;;16.38;6.85;;;11.30;99.90;;;;;;5050884;28;20317;-76
2022/10/04 06:53:05;;;;;;;11.70;6.45;;;11.40;99.90;;;;;;5045104;28;20132;-77
2022/10/04 06:56:04;;;;;;;14.30;7.18;;;11.40;99.90;;;;;;5041019;28;20063;-73
2022/10/04 06:58:44;;;;;;;12.57;6.80;;;11.40;99.90;;;;;;5025393;28;20506;-75
2022/10/04 07:01:28;;;;;;;13.85;6.88;;;11.40;99.90;;;;;;5038859;28;20053;-74
2022/10/04 07:04:03;;;;;;;13.60;7.10;;;11.50;99.90;;;;;;5036344;28;20121;-75
2022/10/04 07:06:36;;;;;;;15.32;7.40;;;11.50;99.90;;;;;;5040449;28;20060;-76
2022/10/04 07:09:04;;;;;;;13.02;6.65;;;11.50;99.90;;;;;;5041145;28;20048;-78
2022/10/04 07:12:06;;;;;;;13.93;7.82;;;11.60;99.90;;;;;;5038653;28;20139;-74
2022/10/04 07:14:37;;;;;;;16.70;7.63;;;11.60;99.90;;;;;;5029226;28;20057;-72
2022/10/04 07:17:27;;;;;;;12.85;6.85;;;11.70;99.90;;;;;;5034810;28;20056;-72
2022/10/04 07:19:54;;;;;;;11.15;6.13;;;11.80;99.90;;;;;;5041005;28;20609;-74
2022/10/04 07:22:45;;;;;;;13.95;7.13;;;11.80;99.90;;;;;;5044049;28;20064;-72
2022/10/04 07:25:18;;;;;;;15.98;7.00;;;11.90;99.90;;;;;;5032620;28;20040;-73
2022/10/04 07:30:53;;;;;;;14.02;7.20;;;12.00;99.90;;;;;;5041637;28;20372;-73
2022/10/04 07:33:23;;;;;;;11.75;6.03;;;12.10;99.90;;;;;;5043591;28;20045;-73
2022/10/04 07:36:09;;;;;;;12.30;6.60;;;12.10;99.90;;;;;;5037866;28;20053;-73
2022/10/04 07:38:43;;;;;;;14.85;7.15;;;12.20;99.90;;;;;;5037848;28;20129;-73
2022/10/04 07:41:25;;;;;;;11.20;5.93;;;12.20;99.90;;;;;;5039598;28;20088;-74
2022/10/04 07:43:58;;;;;;;10.68;6.20;;;12.20;99.90;;;;;;5036803;28;20480;-73
2022/10/04 07:46:45;;;;;;;13.18;6.25;;;12.20;99.90;;;;;;5038899;28;20045;-73
2022/10/04 07:49:22;;;;;;;13.63;5.97;;;12.20;99.90;;;;;;5041791;28;20037;-75
2022/10/04 07:52:25;;;;;;;15.80;6.22;;;12.20;99.90;;;;;;5039559;28;20147;-73
2022/10/04 07:55:08;;;;;;;11.68;6.47;;;12.20;99.90;;;;;;5044381;28;20056;-73
2022/10/04 07:58:12;;;;;;;17.75;6.78;;;12.20;99.90;;;;;;5039886;28;20051;-74
2022/10/04 08:01:07;;;;;;;11.25;6.28;;;12.20;99.90;;;;;;5039813;28;20095;-73
2022/10/04 08:04:05;;;;;;;11.30;6.70;;;12.20;99.90;;;;;;5041517;28;20048;-74
2022/10/04 08:06:38;;;;;;;10.13;6.03;;;12.30;99.90;;;;;;5039931;28;20107;-74
2022/10/04 08:09:35;;;;;;;9.40;6.05;;;12.30;99.90;;;;;;5035310;28;20052;-73
2022/10/04 08:12:04;;;;;;;12.25;6.18;;;12.40;99.90;;;;;;5045373;28;20040;-74
2022/10/04 08:14:51;;;;;;;15.23;7.03;;;12.40;99.90;;;;;;5042601;28;20494;-73
2022/10/04 08:17:40;;;;;;;17.60;7.75;;;12.50;99.90;;;;;;5034255;28;20033;-74
2022/10/04 08:20:39;;;;;;;17.98;6.95;;;12.60;99.90;;;;;;5033110;28;20091;-74
2022/10/04 08:23:34;;;;;;;11.18;6.63;;;12.60;99.90;;;;;;5037393;28;20059;-73
2022/10/04 08:26:22;;;;;;;12.15;6.78;;;12.70;99.90;;;;;;5040051;28;20544;-73
2022/10/04 08:32:22;;;;;;;11.82;6.18;;;12.90;99.90;;;;;;5034221;28;20041;-74
2022/10/04 08:34:54;;;;;;;8.90;5.22;;;12.90;99.90;;;;;;5042649;28;21224;-72
2022/10/04 08:37:33;;;;;;;12.00;6.00;;;13.10;99.90;;;;;;5047884;28;20045;-73
2022/10/04 08:40:22;;;;;;;8.55;5.28;;;13.10;99.90;;;;;;5047559;28;20072;-74
2022/10/04 08:43:11;;;;;;;10.85;5.75;;;13.20;99.90;;;;;;5041228;28;20561;-73
2022/10/04 08:45:46;;;;;;;10.00;5.97;;;13.30;99.90;;;;;;5043697;28;20083;-74
2022/10/04 08:48:44;;;;;;;11.18;5.80;;;13.40;99.90;;;;;;5036951;28;20115;-73
2022/10/04 08:51:21;;;;;;;12.00;6.03;;;13.50;99.90;;;;;;5043105;28;20073;-74
2022/10/04 08:53:47;;;;;;;9.85;5.63;;;13.50;99.90;;;;;;5048319;28;20063;-73
2022/10/04 08:56:13;;;;;;;10.65;5.70;;;13.60;99.90;;;;;;5048145;28;20534;-73
2022/10/04 08:59:08;;;;;;;10.07;5.60;;;13.60;99.90;;;;;;5046483;28;20515;-73
2022/10/04 09:02:08;;;;;;;10.55;4.88;;;13.70;99.90;;;;;;5039992;28;20294;-72
2022/10/04 09:04:48;;;;;;;9.02;4.88;;;13.70;99.90;;;;;;5044485;28;20352;-73
2022/10/04 09:07:50;;;;;;;12.25;5.88;;;13.80;99.90;;;;;;5037734;28;20636;-72
2022/10/04 09:10:21;;;;;;;12.70;5.85;;;13.90;99.90;;;;;;5030644;28;20349;-72
2022/10/04 09:13:26;;;;;;;11.65;5.20;;;14.00;99.90;;;;;;5046312;28;20041;-72
2022/10/04 09:15:55;;;;;;;10.27;5.40;;;14.00;99.90;;;;;;5030053;28;20406;-72
2022/10/04 09:18:36;;;;;;;17.73;6.35;;;14.10;99.90;;;;;;5044053;28;20033;-72
2022/10/04 09:21:19;;;;;;;9.88;5.82;;;14.10;99.90;;;;;;5041005;28;20045;-73
2022/10/04 09:24:08;;;;;;;10.52;5.85;;;14.20;99.90;;;;;;5044954;28;20041;-72
2022/10/04 09:26:46;;;;;;;13.13;6.38;;;14.30;99.90;;;;;;5041190;28;20041;-72
2022/10/04 09:29:20;;;;;;;10.35;6.13;;;14.30;99.90;;;;;;5042567;28;20111;-73
2022/10/04 09:32:05;;;;;;;14.15;6.57;;;14.40;99.90;;;;;;5044713;28;20687;-72
2022/10/04 09:34:49;;;;;;;11.27;7.18;;;14.50;99.90;;;;;;5046690;28;20495;-73
2022/10/04 09:37:33;;;;;;;13.43;6.50;;;14.60;99.90;;;;;;5046297;28;20033;-73
2022/10/04 09:40:27;;;;;;;15.65;6.57;;;14.60;99.90;;;;;;5047397;28;20048;-73
2022/10/04 09:43:05;;;;;;;13.68;7.47;;;14.70;99.90;;;;;;5046616;28;20116;-73
2022/10/04 09:46:02;;;;;;;15.32;6.75;;;14.80;99.90;;;;;;5046096;28;20402;-72
2022/10/04 09:49:05;;;;;;;12.32;6.90;;;14.80;99.90;;;;;;5045699;28;20529;-73
2022/10/04 09:52:13;;;;;;;17.33;7.57;;;14.90;99.90;;;;;;5041353;28;20128;-72
2022/10/04 09:55:04;;;;;;;16.42;7.60;;;15.00;99.90;;;;;;5018861;28;20075;-73
2022/10/04 09:57:33;;;;;;;15.77;7.10;;;15.00;99.90;;;;;;5042029;28;20037;-72
2022/10/04 10:00:10;;;;;;;15.00;7.60;;;15.00;99.90;;;;;;5045186;28;20048;-73
2022/10/04 10:02:37;;;;;;;12.50;7.50;;;14.90;99.90;;;;;;5041401;28;20402;-72
2022/10/04 10:05:25;;;;;;;12.02;6.95;;;14.90;99.90;;;;;;5045352;28;20055;-73
2022/10/04 10:08:19;;;;;;;14.13;7.65;;;14.90;99.90;;;;;;5053546;28;20178;-73
2022/10/04 10:14:14;;;;;;;21.70;7.28;;;15.10;99.90;;;;;;5040212;28;20041;-73
2022/10/04 10:17:02;;;;;;;12.48;7.22;;;15.20;99.90;;;;;;5044153;28;20108;-73
2022/10/04 10:19:59;;;;;;;13.27;5.97;;;15.30;99.90;;;;;;5044873;28;20060;-71
2022/10/04 10:22:59;;;;;;;11.90;6.75;;;15.50;99.90;;;;;;5046196;28;20529;-72
2022/10/04 10:25:47;;;;;;;15.43;7.43;;;15.70;99.90;;;;;;5035556;28;20044;-72
2022/10/04 10:28:31;;;;;;;;;;;15.80;99.90;;;;;;5046058;28;20048;-71
2022/10/04 10:31:07;;;;;;;13.10;6.88;;;15.90;99.90;;;;;;5062413;28;19923;-72
2022/10/04 10:34:12;;;;;;;13.35;7.18;;;15.90;99.90;;;;;;5040171;28;20048;-72
2022/10/04 10:36:59;;;;;;;15.88;6.88;;;16.00;99.90;;;;;;5046584;28;20616;-72
2022/10/04 10:39:52;;;;;;;11.07;6.85;;;16.00;99.90;;;;;;5046825;28;20076;-72
2022/10/04 10:42:43;;;;;;;12.13;6.10;;;16.10;99.90;;;;;;5035716;28;20125;-72
2022/10/04 10:45:14;;;;;;;12.07;6.28;;;16.10;99.90;;;;;;5035511;28;20416;-72
2022/10/04 10:47:58;;;;;;;12.88;6.72;;;16.10;99.90;;;;;;5043513;28;20056;-72
2022/10/04 10:50:33;;;;;;;12.75;6.55;;;16.00;99.90;;;;;;5044775;28;20466;-72
2022/10/04 10:53:44;;;;;;;12.55;5.82;;;16.10;99.90;;;;;;5042600;28;20111;-73
2022/10/04 10:56:49;;;;;;;12.75;5.97;;;16.20;99.90;;;;;;5019440;28;20044;-72
2022/10/04 10:59:34;;;;;;;10.63;5.97;;;16.30;99.90;;;;;;5044153;28;20118;-71
2022/10/04 11:02:14;;;;;;;12.02;5.50;;;16.30;99.90;;;;;;5041719;28;20041;-72
2022/10/04 11:04:53;;;;;;;10.98;5.95;;;16.30;99.90;;;;;;5042470;28;20044;-72
2022/10/04 11:07:40;;;;;;;15.75;6.22;;;16.30;99.90;;;;;;5043699;28;20096;-73
2022/10/04 11:10:31;;;;;;;8.95;5.20;;;16.40;99.90;;;;;;5039637;28;20406;-73
2022/10/04 11:13:12;;;;;;;10.93;5.55;;;16.50;99.90;;;;;;5037634;28;20044;-72
2022/10/04 11:15:50;;;;;;;8.57;4.95;;;16.60;99.90;;;;;;5045892;28;20067;-73
2022/10/04 11:18:16;;;;;;;9.30;5.13;;;16.70;99.90;;;;;;5041554;28;20091;-72
2022/10/04 11:20:47;;;;;;;9.57;5.10;;;16.90;99.90;;;;;;5046190;28;20040;-73
2022/10/04 11:23:55;;;;;;;8.40;5.03;;;17.00;99.90;;;;;;5033084;28;20103;-71
2022/10/04 11:27:03;;;;;;;9.55;4.93;;;17.00;99.90;;;;;;5034615;28;20053;-72
2022/10/04 11:30:08;;;;;;;7.78;5.00;;;17.00;99.90;;;;;;5043532;28;20143;-72
2022/10/04 11:32:40;;;;;;;6.97;3.95;;;17.10;99.90;;;;;;5043274;28;20326;-71
2022/10/04 11:35:21;;;;;;;12.00;4.72;;;17.10;99.90;;;;;;5038784;28;20040;-72
2022/10/04 11:38:22;;;;;;;9.20;5.22;;;17.10;99.90;;;;;;5043393;28;20047;-73
2022/10/04 11:41:07;;;;;;;8.85;4.18;;;17.10;99.90;;;;;;5003749;28;20049;-72
2022/10/04 11:43:35;;;;;;;9.77;4.30;;;17.10;99.90;;;;;;5044748;28;20523;-71
2022/10/04 11:46:42;;;;;;;13.10;4.60;;;17.10;99.90;;;;;;5044218;28;20051;-72
2022/10/04 11:49:35;;;;;;;8.30;5.03;;;17.10;99.90;;;;;;5026927;28;20048;-73
2022/10/04 11:52:18;;;;;;;11.43;5.22;;;17.10;99.90;;;;;;5045892;28;20040;-71
2022/10/04 11:54:57;;;;;;;10.80;4.78;;;17.10;99.90;;;;;;5045092;28;20084;-72
2022/10/04 11:57:43;;;;;;;9.00;4.82;;;17.10;99.90;;;;;;5044548;28;20506;-73
2022/10/04 12:00:21;;;;;;;8.32;4.32;;;17.10;99.90;;;;;;5041204;28;20195;-72
2022/10/04 12:03:09;;;;;;;10.18;5.07;;;17.10;99.90;;;;;;5041615;28;20068;-72
2022/10/04 12:05:49;;;;;;;7.35;4.43;;;17.10;99.90;;;;;;5035420;28;20550;-73
2022/10/04 12:08:37;;;;;;;8.00;4.13;;;17.20;99.90;;;;;;5041846;28;20044;-71
2022/10/04 12:11:22;;;;;;;10.52;4.50;;;17.30;99.90;;;;;;5037126;28;20045;-72
2022/10/04 12:14:23;;;;;;;8.32;4.47;;;17.40;99.90;;;;;;5036591;28;20045;-71
2022/10/04 12:17:24;;;;;;;7.82;4.18;;;17.50;99.90;;;;;;5044276;28;20033;-72
2022/10/04 12:20:16;;;;;;;8.13;4.30;;;17.70;99.90;;;;;;5039691;28;20134;-72
2022/10/04 12:22:45;;;;;;;7.93;4.10;;;17.80;99.90;;;;;;5043803;28;20353;-73
2022/10/04 12:25:34;;;;;;;11.95;4.20;;;17.90;99.90;;;;;;5039908;28;20041;-72
2022/10/04 12:28:25;;;;;;;8.98;3.95;;;17.90;99.90;;;;;;5043828;28;20041;-72
2022/10/04 12:31:18;;;;;;;9.00;4.10;;;17.90;99.90;;;;;;5034876;28;20044;-72
2022/10/04 12:33:53;;;;;;;8.68;4.18;;;18.00;99.90;;;;;;5037425;28;20041;-72
2022/10/04 12:36:44;;;;;;;7.80;4.25;;;17.90;99.90;;;;;;5045460;28;20052;-73
2022/10/04 12:39:15;;;;;;;7.32;4.75;;;18.00;99.90;;;;;;5040007;28;20041;-73
2022/10/04 12:41:53;;;;;;;8.80;3.17;;;17.90;99.90;;;;;;5044111;28;20033;-71
2022/10/04 12:44:33;;;;;;;8.05;3.72;;;18.00;99.90;;;;;;5037498;28;20132;-71
2022/10/04 12:47:44;;;;;;;8.95;4.03;;;18.00;99.90;;;;;;5038639;28;20045;-72
2022/10/04 12:50:39;;;;;;;9.10;3.83;;;18.10;99.90;;;;;;5036657;28;20448;-72
2022/10/04 12:53:31;;;;;;;6.43;3.45;;;18.10;99.90;;;;;;5039519;28;20287;-73
2022/10/04 12:56:02;;;;;;;7.90;4.03;;;18.20;99.90;;;;;;5037464;28;20487;-72
2022/10/04 12:58:53;;;;;;;6.15;3.83;;;18.30;99.90;;;;;;5041246;28;20060;-71
2022/10/04 13:01:40;;;;;;;7.85;4.38;;;18.40;99.90;;;;;;5039514;28;20109;-72
2022/10/04 13:04:12;;;;;;;9.55;4.10;;;18.40;99.90;;;;;;5027893;28;20049;-71
2022/10/04 13:07:02;;;;;;;7.03;3.72;;;18.50;99.90;;;;;;5030920;28;20582;-72
2022/10/04 13:09:57;;;;;;;6.82;3.85;;;18.60;99.90;;;;;;5040523;28;20067;-72
2022/10/04 13:12:25;;;;;;;8.18;3.85;;;18.70;99.90;;;;;;5039291;28;20044;-71
2022/10/04 13:15:18;;;;;;;7.38;3.47;;;18.70;99.90;;;;;;5035370;28;20045;-71
2022/10/04 13:17:59;;;;;;;7.22;3.60;;;18.70;99.90;;;;;;5041925;28;20605;-72
2022/10/04 13:20:30;;;;;;;8.23;3.60;;;18.60;99.90;;;;;;5049233;28;20110;-73
2022/10/04 13:23:38;;;;;;;10.02;3.83;;;18.50;99.90;;;;;;5044919;28;20033;-72
2022/10/04 13:26:29;;;;;;;6.97;3.90;;;18.40;99.90;;;;;;5037105;28;20044;-71
2022/10/04 13:29:03;;;;;;;6.65;3.35;;;18.30;99.90;;;;;;5064025;28;20086;-72
2022/10/04 13:31:51;;;;;;;9.32;4.10;;;18.30;99.90;;;;;;5046862;28;20084;-72
2022/10/04 13:34:51;;;;;;;9.18;4.22;;;18.40;99.90;;;;;;5045033;28;20449;-72
2022/10/04 13:37:57;;;;;;;9.27;3.97;;;18.50;99.90;;;;;;5044119;28;20494;-72
2022/10/04 13:41:07;;;;;;;8.02;3.92;;;18.60;99.90;;;;;;5048715;28;20087;-72
2022/10/04 13:43:48;;;;;;;6.70;3.20;;;18.70;99.90;;;;;;5039509;28;20072;-73
2022/10/04 13:46:27;;;;;;;8.88;3.97;;;18.80;99.90;;;;;;5047830;28;20095;-72
2022/10/04 13:49:32;;;;;;;7.05;3.70;;;18.80;99.90;;;;;;5045450;28;20429;-72
2022/10/04 13:58:24;;;;;;;;;;;18.60;99.90;;;;;;5039050;28;20765;-74
2022/10/04 14:01:00;;;;;;;8.27;3.88;;;18.60;99.90;;;;;;5021464;28;20362;-71
2022/10/04 14:03:49;;;;;;;7.70;3.72;;;18.60;99.90;;;;;;5041535;28;20055;-72
2022/10/04 14:06:42;;;;;;;5.85;3.10;;;18.60;99.90;;;;;;5057686;28;20037;-72
2022/10/04 14:09:16;;;;;;;8.95;3.45;;;18.50;99.90;;;;;;5035240;28;20040;-72